createdAt,value
2023-01-23T00:00:15.775Z,1.40
2023-01-23T00:02:43.716Z,1.30
2023-01-23T00:05:12.077Z,1.30
2023-01-23T00:07:41.303Z,1.30
2023-01-23T00:10:10.610Z,1.30
2023-01-23T00:12:41.718Z,1.30
2023-01-23T00:15:10.532Z,1.30
2023-01-23T00:17:38.547Z,1.30
2023-01-23T00:20:07.547Z,1.30
2023-01-23T00:22:35.300Z,1.30
2023-01-23T00:25:04.753Z,1.40
2023-01-23T00:27:33.004Z,1.40
2023-01-23T00:30:01.112Z,1.40
2023-01-23T00:32:29.661Z,1.40
2023-01-23T00:34:57.508Z,1.40
2023-01-23T00:37:25.346Z,1.40
2023-01-23T00:39:53.197Z,1.40
2023-01-23T00:42:22.371Z,1.40
2023-01-23T00:44:50.206Z,1.40
2023-01-23T00:47:18.019Z,1.40
2023-01-23T00:49:45.836Z,1.40
2023-01-23T00:52:13.743Z,1.40
2023-01-23T00:54:41.599Z,1.40
2023-01-23T00:57:09.464Z,1.40
2023-01-23T00:59:38.744Z,1.40
2023-01-23T01:02:06.644Z,1.40
2023-01-23T01:04:34.482Z,1.40
2023-01-23T01:07:02.321Z,1.40
2023-01-23T01:09:30.164Z,1.40
2023-01-23T01:11:58.282Z,1.40
2023-01-23T01:14:26.098Z,1.40
2023-01-23T01:16:55.314Z,1.40
2023-01-23T01:19:23.121Z,1.40
2023-01-23T01:21:51.038Z,1.40
2023-01-23T01:24:18.931Z,1.40
2023-01-23T01:26:46.762Z,1.40
2023-01-23T01:29:14.632Z,1.40
2023-01-23T01:31:42.515Z,1.40
2023-01-23T01:34:11.757Z,1.30
2023-01-23T01:36:39.618Z,1.30
2023-01-23T01:39:07.410Z,1.30
2023-01-23T01:41:35.699Z,1.40
2023-01-23T01:44:03.869Z,1.40
2023-01-23T01:46:32.675Z,1.40
2023-01-23T01:49:08.348Z,1.40
2023-01-23T01:51:42.303Z,1.40
2023-01-23T01:54:17.053Z,1.40
2023-01-23T01:56:49.903Z,1.40
2023-01-23T01:59:19.663Z,1.40
2023-01-23T02:01:51.488Z,1.40
2023-01-23T02:04:19.391Z,1.40
2023-01-23T02:06:49.151Z,1.30
2023-01-23T02:09:23.276Z,1.30
2023-01-23T02:11:51.592Z,1.30
2023-01-23T02:14:20.196Z,1.30
2023-01-23T02:16:51.054Z,1.30
2023-01-23T02:19:35.090Z,1.30
2023-01-23T02:22:14.198Z,1.30
2023-01-23T02:24:52.502Z,1.20
2023-01-23T02:27:21.700Z,1.30
2023-01-23T02:29:51.875Z,1.30
2023-01-23T02:32:24.283Z,1.20
2023-01-23T02:34:54.611Z,1.30
2023-01-23T02:37:25.342Z,1.30
2023-01-23T02:39:53.136Z,1.30
2023-01-23T02:42:23.993Z,1.30
2023-01-23T02:44:53.809Z,1.30
2023-01-23T02:47:21.681Z,1.30
2023-01-23T02:49:49.476Z,1.30
2023-01-23T02:52:17.379Z,1.30
2023-01-23T02:54:45.215Z,1.30
2023-01-23T02:57:14.311Z,1.30
2023-01-23T03:00:00.809Z,1.30
2023-01-23T03:02:28.833Z,1.30
2023-01-23T03:04:56.772Z,1.30
2023-01-23T03:07:24.593Z,1.30
2023-01-23T03:09:52.575Z,1.30
2023-01-23T03:12:20.421Z,1.30
2023-01-23T03:14:53.714Z,1.30
2023-01-23T03:17:21.686Z,1.40
2023-01-23T03:19:49.619Z,1.40
2023-01-23T03:22:17.408Z,1.40
2023-01-23T03:24:45.275Z,1.40
2023-01-23T03:27:13.144Z,1.40
2023-01-23T03:29:58.550Z,1.40
2023-01-23T03:32:29.251Z,1.40
2023-01-23T03:34:57.351Z,1.40
2023-01-23T03:37:25.173Z,1.40
2023-01-23T03:40:10.438Z,1.40
2023-01-23T03:42:38.327Z,1.40
2023-01-23T03:45:07.162Z,1.40
2023-01-23T03:47:36.716Z,1.40
2023-01-23T03:50:04.936Z,1.40
2023-01-23T03:52:33.030Z,1.40
2023-01-23T03:55:00.886Z,1.40
2023-01-23T03:57:28.914Z,1.40
2023-01-23T03:59:56.757Z,1.40
2023-01-23T04:02:25.099Z,1.40
2023-01-23T04:04:54.347Z,1.40
2023-01-23T04:07:22.188Z,1.40
2023-01-23T04:09:50.019Z,1.40
2023-01-23T04:12:18.132Z,1.40
2023-01-23T04:14:46.003Z,1.40
2023-01-23T04:17:13.802Z,1.40
2023-01-23T04:19:41.628Z,1.40
2023-01-23T04:22:10.844Z,1.40
2023-01-23T04:24:38.639Z,1.40
2023-01-23T04:27:06.433Z,1.40
2023-01-23T04:29:34.325Z,1.40
2023-01-23T04:32:02.380Z,1.40
2023-01-23T04:34:30.260Z,1.40
2023-01-23T04:36:58.116Z,1.40
2023-01-23T04:39:27.334Z,1.40
2023-01-23T04:41:55.127Z,1.40
2023-01-23T04:44:23.044Z,1.40
2023-01-23T04:46:52.867Z,1.40
2023-01-23T04:49:21.315Z,1.40
2023-01-23T04:51:50.042Z,1.40
2023-01-23T04:54:18.897Z,1.40
2023-01-23T04:56:49.582Z,1.40
2023-01-23T04:59:17.680Z,1.40
2023-01-23T05:01:45.984Z,1.40
2023-01-23T05:04:13.900Z,1.40
2023-01-23T05:06:41.844Z,1.40
2023-01-23T05:09:09.765Z,1.40
2023-01-23T05:11:37.681Z,1.40
2023-01-23T05:14:06.832Z,1.40
2023-01-23T05:16:34.749Z,1.40
2023-01-23T05:19:02.570Z,1.40
2023-01-23T05:21:30.388Z,1.40
2023-01-23T05:23:58.243Z,1.40
2023-01-23T05:26:26.102Z,1.40
2023-01-23T05:28:53.980Z,1.40
2023-01-23T05:31:23.288Z,1.40
2023-01-23T05:33:51.188Z,1.40
2023-01-23T05:36:19.212Z,1.50
2023-01-23T05:38:47.036Z,1.50
2023-01-23T05:41:14.953Z,1.50
2023-01-23T05:43:44.596Z,1.40
2023-01-23T05:46:12.479Z,1.40
2023-01-23T05:48:41.737Z,1.40
2023-01-23T05:51:09.803Z,1.40
2023-01-23T05:53:37.662Z,1.40
2023-01-23T05:56:08.012Z,1.50
2023-01-23T05:58:35.888Z,1.40
2023-01-23T06:01:03.861Z,1.40
2023-01-23T06:03:31.772Z,1.40
2023-01-23T06:06:02.555Z,1.40
2023-01-23T06:08:30.667Z,1.40
2023-01-23T06:10:59.515Z,1.40
2023-01-23T06:13:27.968Z,1.30
2023-01-23T06:15:56.430Z,1.40
2023-01-23T06:18:24.514Z,1.40
2023-01-23T06:20:57.969Z,1.40
2023-01-23T06:23:27.460Z,1.40
2023-01-23T06:25:55.334Z,1.50
2023-01-23T06:28:23.196Z,1.40
2023-01-23T06:30:51.115Z,1.50
2023-01-23T06:33:19.016Z,1.40
2023-01-23T06:35:46.917Z,1.40
2023-01-23T06:38:14.773Z,1.40
2023-01-23T06:40:45.082Z,1.40
2023-01-23T06:43:12.913Z,1.40
2023-01-23T06:45:40.679Z,1.40
2023-01-23T06:48:08.682Z,1.40
2023-01-23T06:50:36.543Z,1.50
2023-01-23T06:53:05.377Z,1.50
2023-01-23T06:55:33.663Z,1.50
2023-01-23T06:58:02.885Z,1.50
2023-01-23T07:00:30.753Z,1.50
2023-01-23T07:02:58.972Z,1.50
2023-01-23T07:05:26.872Z,1.40
2023-01-23T07:07:54.769Z,1.40
2023-01-23T07:10:23.004Z,1.40
2023-01-23T07:12:51.888Z,1.40
2023-01-23T07:15:21.142Z,1.40
2023-01-23T07:17:48.984Z,1.40
2023-01-23T07:20:17.055Z,1.40
2023-01-23T07:22:45.009Z,1.40
2023-01-23T07:25:12.938Z,1.40
2023-01-23T07:27:41.062Z,1.40
2023-01-23T07:30:10.591Z,1.40
2023-01-23T07:32:39.894Z,1.40
2023-01-23T07:35:09.360Z,1.40
2023-01-23T07:37:37.311Z,1.40
2023-01-23T07:40:05.873Z,1.40
2023-01-23T07:42:33.801Z,1.40
2023-01-23T07:45:01.870Z,1.40
2023-01-23T07:47:29.719Z,1.50
2023-01-23T07:49:58.898Z,1.50
2023-01-23T07:52:26.739Z,1.50
2023-01-23T07:54:54.573Z,1.50
2023-01-23T07:57:22.430Z,1.50
2023-01-23T07:59:50.333Z,1.50
2023-01-23T08:02:18.148Z,1.50
2023-01-23T08:04:45.991Z,1.50
2023-01-23T08:07:16.219Z,1.50
2023-01-23T08:09:44.105Z,1.60
2023-01-23T08:12:13.084Z,1.60
2023-01-23T08:14:41.724Z,1.70
2023-01-23T08:17:09.623Z,1.70
2023-01-23T08:19:37.500Z,1.80
2023-01-23T08:22:05.348Z,1.80
2023-01-23T08:24:34.646Z,1.80
2023-01-23T08:27:02.474Z,1.90
2023-01-23T08:29:31.828Z,2.00
2023-01-23T08:31:59.766Z,2.00
2023-01-23T08:34:27.654Z,2.00
2023-01-23T08:36:55.440Z,2.00
2023-01-23T08:39:24.527Z,2.00
2023-01-23T08:41:53.696Z,2.00
2023-01-23T08:44:21.505Z,2.00
2023-01-23T08:46:49.425Z,2.10
2023-01-23T08:49:19.469Z,2.10
2023-01-23T08:51:47.454Z,2.50
2023-01-23T08:54:15.559Z,3.60
2023-01-23T08:56:44.756Z,4.30
2023-01-23T08:59:13.975Z,4.60
2023-01-23T09:01:41.836Z,5.40
2023-01-23T09:04:10.069Z,6.30
2023-01-23T09:06:37.948Z,6.90
2023-01-23T09:09:05.817Z,7.20
2023-01-23T09:11:33.627Z,7.60
2023-01-23T09:14:01.435Z,7.90
2023-01-23T09:16:30.691Z,7.90
2023-01-23T09:18:58.519Z,8.00
2023-01-23T09:21:26.403Z,8.00
2023-01-23T09:23:54.305Z,7.30
2023-01-23T09:26:22.144Z,6.20
2023-01-23T09:28:50.046Z,5.40
2023-01-23T09:31:17.997Z,4.80
2023-01-23T09:33:48.868Z,4.30
2023-01-23T09:36:16.783Z,3.90
2023-01-23T09:38:44.650Z,3.60
2023-01-23T09:41:18.123Z,3.40
2023-01-23T09:43:52.870Z,3.30
2023-01-23T09:46:25.829Z,3.20
2023-01-23T09:49:01.617Z,3.10
2023-01-23T09:51:36.233Z,3.10
2023-01-23T09:54:15.495Z,2.90
2023-01-23T09:56:47.173Z,2.90
2023-01-23T09:59:18.817Z,2.80
2023-01-23T10:01:46.780Z,2.80
2023-01-23T10:04:19.039Z,2.90
2023-01-23T10:07:12.668Z,2.80
2023-01-23T10:10:00.960Z,2.80
2023-01-23T10:12:40.686Z,2.70
2023-01-23T10:15:23.138Z,2.70
2023-01-23T10:18:02.768Z,2.80
2023-01-23T10:20:56.527Z,2.80
2023-01-23T10:23:47.545Z,3.00
2023-01-23T10:26:20.602Z,3.00
2023-01-23T10:28:48.983Z,3.10
2023-01-23T10:31:29.856Z,3.10
2023-01-23T10:34:07.426Z,3.10
2023-01-23T10:36:48.140Z,3.10
2023-01-23T10:39:27.417Z,3.00
2023-01-23T10:42:01.986Z,3.00
2023-01-23T10:44:30.502Z,3.00
2023-01-23T10:47:03.639Z,3.00
2023-01-23T10:49:35.113Z,3.00
2023-01-23T10:52:05.434Z,3.00
2023-01-23T10:54:47.318Z,2.90
2023-01-23T10:57:24.561Z,2.90
2023-01-23T10:59:57.510Z,2.90
2023-01-23T11:02:29.517Z,2.80
2023-01-23T11:04:57.615Z,2.80
2023-01-23T11:07:28.760Z,2.80
2023-01-23T11:09:58.861Z,2.70
2023-01-23T11:12:29.340Z,2.80
2023-01-23T11:15:13.375Z,2.80
2023-01-23T11:17:43.958Z,2.80
2023-01-23T11:20:23.288Z,2.80
2023-01-23T11:23:04.852Z,2.80
2023-01-23T11:25:36.712Z,2.90
2023-01-23T11:28:19.352Z,2.90
2023-01-23T11:30:54.247Z,2.90
2023-01-23T11:33:41.366Z,2.90
2023-01-23T11:36:23.385Z,3.00
2023-01-23T11:38:58.503Z,3.00
2023-01-23T11:41:30.543Z,3.00
2023-01-23T11:43:58.366Z,2.90
2023-01-23T11:46:45.488Z,2.90
2023-01-23T11:49:26.287Z,3.00
2023-01-23T11:52:19.528Z,3.00
2023-01-23T11:55:04.643Z,3.00
2023-01-23T11:57:41.503Z,3.00
2023-01-23T12:00:23.817Z,2.90
2023-01-23T12:03:31.528Z,2.90
2023-01-23T12:06:32.141Z,2.90
2023-01-23T12:09:08.460Z,3.00
2023-01-23T12:11:45.664Z,3.00
2023-01-23T12:14:21.299Z,3.00
2023-01-23T12:17:14.629Z,3.00
2023-01-23T12:20:01.805Z,3.00
2023-01-23T12:22:38.093Z,2.90
2023-01-23T12:25:20.750Z,2.90
2023-01-23T12:27:57.605Z,2.90
2023-01-23T12:31:05.792Z,3.00
2023-01-23T12:33:56.979Z,3.10
2023-01-23T12:36:54.440Z,3.10
2023-01-23T12:39:56.198Z,3.20
2023-01-23T12:42:27.317Z,3.20
2023-01-23T12:45:02.437Z,3.20
2023-01-23T12:47:35.941Z,3.20
2023-01-23T12:50:15.294Z,3.20
2023-01-23T12:52:48.011Z,3.30
2023-01-23T12:55:21.372Z,3.30
2023-01-23T12:58:07.148Z,3.30
2023-01-23T13:00:48.855Z,3.20
2023-01-23T13:03:46.250Z,3.20
2023-01-23T13:06:45.210Z,3.20
2023-01-23T13:09:24.791Z,3.30
2023-01-23T13:12:06.256Z,3.20
2023-01-23T13:15:06.999Z,3.30
2023-01-23T13:17:39.024Z,3.20
2023-01-23T13:20:43.525Z,3.10
2023-01-23T13:23:30.470Z,3.10
2023-01-23T13:26:32.074Z,3.20
2023-01-23T13:29:03.597Z,3.10
2023-01-23T13:31:37.963Z,3.20
2023-01-23T13:34:41.693Z,3.20
2023-01-23T13:37:46.316Z,3.20
2023-01-23T13:40:17.193Z,3.20
2023-01-23T13:42:45.667Z,3.20
2023-01-23T13:45:26.903Z,3.20
2023-01-23T14:21:52.419Z,3.40
2023-01-23T14:24:23.307Z,3.30
2023-01-23T14:26:53.311Z,3.20
2023-01-23T14:29:22.992Z,3.20
2023-01-23T14:31:51.831Z,3.30
2023-01-23T14:34:22.512Z,3.20
2023-01-23T14:36:54.079Z,3.20
2023-01-23T14:39:24.136Z,3.10
2023-01-23T14:41:54.426Z,3.10
2023-01-23T14:44:25.595Z,3.10
2023-01-23T14:46:55.348Z,3.00
2023-01-23T14:49:28.133Z,3.00
2023-01-23T14:51:58.829Z,3.00
2023-01-23T14:54:32.570Z,2.90
2023-01-23T14:57:04.284Z,2.90
2023-01-23T14:59:34.950Z,2.90
2023-01-23T15:02:13.060Z,2.90
2023-01-23T15:05:05.627Z,2.80
2023-01-23T15:07:33.526Z,2.80
2023-01-23T15:10:01.506Z,2.80
2023-01-23T15:12:29.600Z,2.80
2023-01-23T15:14:57.785Z,2.70
2023-01-23T15:17:25.712Z,2.70
2023-01-23T15:19:56.083Z,2.70
2023-01-23T15:22:28.048Z,2.60
2023-01-23T15:24:56.275Z,2.60
2023-01-23T15:27:27.012Z,2.60
2023-01-23T15:30:28.190Z,2.60
2023-01-23T15:32:56.447Z,2.50
2023-01-23T15:35:45.950Z,2.50
2023-01-23T15:38:17.186Z,2.40
2023-01-23T15:40:45.315Z,2.40
2023-01-23T15:43:17.581Z,2.30
2023-01-23T15:45:45.515Z,2.30
2023-01-23T15:48:13.392Z,2.30
2023-01-23T15:50:42.724Z,2.30
2023-01-23T15:53:13.615Z,2.20
2023-01-23T15:55:41.854Z,2.20
2023-01-23T15:58:14.027Z,2.20
2023-01-23T16:00:41.985Z,2.10
2023-01-23T16:03:09.938Z,2.10
2023-01-23T16:05:38.574Z,2.10
2023-01-23T16:08:18.697Z,2.10
2023-01-23T16:10:47.154Z,2.00
2023-01-23T16:13:15.636Z,2.00
2023-01-23T16:15:53.698Z,2.00
2023-01-23T16:18:23.606Z,1.90
2023-01-23T16:20:51.521Z,1.90
2023-01-23T16:23:24.651Z,1.90
2023-01-23T16:25:53.259Z,1.80
2023-01-23T16:28:25.923Z,1.80
2023-01-23T16:30:54.123Z,1.80
2023-01-23T16:33:22.750Z,1.70
2023-01-23T16:35:51.752Z,1.70
2023-01-23T16:38:24.546Z,1.70
2023-01-23T16:40:53.660Z,1.60
2023-01-23T16:43:21.975Z,1.60
2023-01-23T16:45:53.685Z,1.60
2023-01-23T16:48:28.465Z,1.60
2023-01-23T16:51:01.488Z,1.50
2023-01-23T16:53:33.404Z,1.50
2023-01-23T16:56:02.671Z,1.50
2023-01-23T16:58:35.635Z,1.60
2023-01-23T17:01:11.002Z,1.60
2023-01-23T17:03:41.633Z,1.60
2023-01-23T17:06:13.681Z,1.60
2023-01-23T17:08:42.903Z,1.70
2023-01-23T17:11:20.974Z,1.70
2023-01-23T17:13:50.042Z,1.70
2023-01-23T17:16:26.882Z,1.70
2023-01-23T17:18:55.946Z,1.70
2023-01-23T17:21:25.915Z,1.70
2023-01-23T17:23:55.370Z,1.80
2023-01-23T17:26:23.293Z,1.80
2023-01-23T17:28:51.415Z,1.70
2023-01-23T17:31:25.010Z,1.80
2023-01-23T17:33:53.448Z,1.80
2023-01-23T17:36:21.344Z,1.70
2023-01-23T17:38:49.425Z,1.70
2023-01-23T17:41:18.918Z,1.70
2023-01-23T17:43:48.355Z,1.70
2023-01-23T17:46:22.320Z,1.70
2023-01-23T17:48:50.352Z,1.60
2023-01-23T17:51:19.837Z,1.60
2023-01-23T17:53:48.063Z,1.60
2023-01-23T17:56:16.394Z,1.60
2023-01-23T17:58:46.018Z,1.60
2023-01-23T18:01:21.838Z,1.60
2023-01-23T18:03:50.880Z,1.60
2023-01-23T18:06:19.531Z,1.50
2023-01-23T18:08:47.379Z,1.50
2023-01-23T18:11:20.575Z,1.60
2023-01-23T18:14:10.642Z,1.60
2023-01-23T18:16:45.058Z,1.60
2023-01-23T18:19:18.449Z,1.50
2023-01-23T18:21:47.913Z,1.50
2023-01-23T18:24:23.584Z,1.50
2023-01-23T18:26:57.860Z,1.50
2023-01-23T18:29:36.454Z,1.50
2023-01-23T18:32:15.148Z,1.40
2023-01-23T18:34:48.959Z,1.40
2023-01-23T18:37:25.125Z,1.40
2023-01-23T18:40:01.674Z,1.40
2023-01-23T18:42:35.658Z,1.40
2023-01-23T18:45:07.976Z,1.40
2023-01-23T18:47:36.135Z,1.30
2023-01-23T18:50:05.107Z,1.40
2023-01-23T18:52:44.668Z,1.40
2023-01-23T18:55:21.308Z,1.40
2023-01-23T18:58:15.926Z,1.50
2023-01-23T19:00:51.310Z,1.50
2023-01-23T19:03:20.133Z,1.50
2023-01-23T19:05:48.450Z,1.60
2023-01-23T19:08:30.696Z,1.60
2023-01-23T19:11:01.596Z,1.60
2023-01-23T19:13:34.839Z,1.60
2023-01-23T19:16:10.791Z,1.60
2023-01-23T19:18:47.559Z,1.60
2023-01-23T19:21:18.883Z,1.60
2023-01-23T19:23:53.544Z,1.70
2023-01-23T19:26:22.188Z,1.70
2023-01-23T19:28:50.681Z,1.70
2023-01-23T19:31:24.084Z,1.70
2023-01-23T19:33:52.672Z,1.70
2023-01-23T19:36:20.839Z,1.70
2023-01-23T19:38:48.674Z,1.70
2023-01-23T19:41:21.442Z,1.70
2023-01-23T19:43:51.157Z,1.70
2023-01-23T19:46:21.519Z,1.70
2023-01-23T19:48:49.449Z,1.70
2023-01-23T19:51:19.408Z,1.80
2023-01-23T19:53:47.780Z,1.80
2023-01-23T19:56:17.900Z,1.80
2023-01-23T19:58:46.011Z,1.80
2023-01-23T20:01:23.836Z,1.80
2023-01-23T20:03:52.150Z,1.80
2023-01-23T20:06:19.957Z,1.80
2023-01-23T20:08:47.821Z,1.80
2023-01-23T20:11:15.814Z,1.80
2023-01-23T20:13:43.719Z,1.80
2023-01-23T20:16:15.825Z,1.80
2023-01-23T20:18:46.672Z,1.80
2023-01-23T20:21:14.572Z,1.80
2023-01-23T20:23:42.468Z,1.80
2023-01-23T20:26:10.648Z,1.80
2023-01-23T20:28:38.816Z,1.80
2023-01-23T20:31:07.638Z,1.80
2023-01-23T20:33:35.515Z,1.80
2023-01-23T20:36:05.073Z,1.80
2023-01-23T20:38:32.965Z,1.80
2023-01-23T20:41:04.490Z,1.80
2023-01-23T20:43:32.556Z,1.90
2023-01-23T20:46:00.444Z,1.90
2023-01-23T20:48:28.363Z,1.80
2023-01-23T20:50:57.658Z,1.80
2023-01-23T20:53:32.041Z,1.90
2023-01-23T20:56:03.605Z,1.80
2023-01-23T20:58:49.583Z,1.90
2023-01-23T21:01:18.844Z,1.90
2023-01-23T21:03:48.214Z,1.90
2023-01-23T21:06:17.116Z,1.90
2023-01-23T21:08:46.543Z,1.90
2023-01-23T21:11:16.681Z,1.90
2023-01-23T21:13:45.926Z,1.90
2023-01-23T21:16:16.389Z,1.90
2023-01-23T21:18:46.947Z,1.90
2023-01-23T21:21:16.174Z,1.90
2023-01-23T21:23:48.808Z,1.90
2023-01-23T21:26:18.313Z,1.90
2023-01-23T21:28:47.287Z,1.90
2023-01-23T21:31:22.126Z,1.90
2023-01-23T21:33:50.814Z,1.90
2023-01-23T21:36:20.884Z,1.90
2023-01-23T21:38:51.453Z,1.90
2023-01-23T21:41:19.597Z,2.00
2023-01-23T21:43:47.896Z,1.90
2023-01-23T21:46:15.886Z,2.00
2023-01-23T21:48:44.023Z,2.00
2023-01-23T21:51:13.991Z,2.00
2023-01-23T21:53:43.408Z,2.00
2023-01-23T21:56:13.667Z,2.00
2023-01-23T21:58:42.255Z,2.00
2023-01-23T22:01:33.890Z,2.00
2023-01-23T22:04:03.410Z,2.00
2023-01-23T22:06:32.081Z,2.00
2023-01-23T22:09:00.209Z,2.00
2023-01-23T22:11:29.477Z,2.00
2023-01-23T22:13:57.779Z,2.00
2023-01-23T22:16:46.426Z,2.00
2023-01-23T22:19:15.428Z,2.00
2023-01-23T22:21:43.697Z,2.00
2023-01-23T22:24:11.652Z,2.00
2023-01-23T22:26:40.888Z,2.00
2023-01-23T22:29:08.958Z,2.00
2023-01-23T22:31:36.865Z,2.10
2023-01-23T22:34:04.827Z,2.00
2023-01-23T22:36:32.705Z,2.10
2023-01-23T22:39:00.625Z,2.10
2023-01-23T22:41:28.995Z,2.10
2023-01-23T22:43:59.275Z,2.00
2023-01-23T22:46:28.178Z,2.00
2023-01-23T22:48:56.079Z,2.00
2023-01-23T22:51:25.915Z,2.00
2023-01-23T22:53:54.465Z,2.10
2023-01-23T22:56:22.578Z,2.00
2023-01-23T22:58:52.429Z,2.00
2023-01-23T23:01:22.942Z,2.00
2023-01-23T23:03:51.273Z,2.00
2023-01-23T23:06:19.779Z,2.00
2023-01-23T23:08:48.692Z,2.00
2023-01-23T23:11:18.821Z,2.00
2023-01-23T23:13:47.281Z,2.00
2023-01-23T23:16:18.061Z,2.00
2023-01-23T23:18:48.555Z,2.10
2023-01-23T23:21:18.481Z,2.10
2023-01-23T23:23:46.582Z,2.10
2023-01-23T23:26:15.472Z,2.10
2023-01-23T23:28:43.569Z,2.10
2023-01-23T23:31:11.893Z,2.10
2023-01-23T23:33:40.122Z,2.10
2023-01-23T23:36:10.224Z,2.10
2023-01-23T23:38:38.129Z,2.10
2023-01-23T23:41:07.405Z,2.10
2023-01-23T23:43:35.912Z,2.10
2023-01-23T23:46:06.571Z,2.10
2023-01-23T23:48:35.672Z,2.10
2023-01-23T23:51:04.997Z,2.10
2023-01-23T23:53:34.980Z,2.10
2023-01-23T23:56:02.980Z,2.10
2023-01-23T23:58:30.827Z,2.10
